Time;durP1;ratioP1;P1;durP2;ratioP2;P2;SDS_P1;SDS_P2;PMS_P1;PMS_P2;Temp;Humidity;BMP_temperature;BMP_pressure;BME280_temperature;BME280_humidity;BME280_pressure;Samples;Min_cycle;Max_cycle;Signal;HPM_P1;HPM_P2
2022/06/09 00:01:02;;;;;;;;;1.75;1.75;;;;;23.25;42.77;100878.41;5077395;28;45386;-48
2022/06/09 00:03:34;;;;;;;;;2.00;2.00;;;;;23.24;42.26;100876.72;5077558;28;45311;-50
2022/06/09 00:06:00;;;;;;;;;1.00;1.00;;;;;23.22;42.61;100875.97;5077567;28;45248;-54
2022/06/09 00:08:29;;;;;;;;;1.50;1.00;;;;;23.23;42.49;100882.94;5077428;28;45999;-48
2022/06/09 00:11:00;;;;;;;;;1.00;1.00;;;;;23.24;42.29;100884.63;5076738;28;45411;-48
2022/06/09 00:13:26;;;;;;;;;2.00;2.00;;;;;23.21;42.04;100892.75;5077539;28;45265;-47
2022/06/09 00:15:51;;;;;;;;;1.75;1.75;;;;;23.20;42.13;100888.44;5077199;28;45282;-48
2022/06/09 00:18:17;;;;;;;;;4.75;2.00;;;;;23.20;42.41;100886.66;5076730;28;45335;-51
2022/06/09 00:20:42;;;;;;;;;3.00;2.00;;;;;23.21;42.33;100895.41;5076729;28;45231;-49
2022/06/09 00:23:08;;;;;;;;;1.75;1.75;;;;;23.20;42.32;100886.66;5076915;28;45458;-48
2022/06/09 00:25:35;;;;;;;;;1.75;1.00;;;;;23.19;42.13;100894.66;5076995;28;45472;-48
2022/06/09 00:28:01;;;;;;;;;2.00;2.00;;;;;23.19;42.30;100903.47;5076888;28;47171;-50
2022/06/09 00:30:27;;;;;;;;;2.00;1.00;;;;;23.19;42.42;100907.88;5077099;28;45938;-48
2022/06/09 00:32:52;;;;;;;;;3.00;3.00;;;;;23.19;42.26;100902.59;5077000;28;45363;-48
2022/06/09 00:35:18;;;;;;;;;2.00;2.00;;;;;23.17;41.97;100903.53;5077019;28;45466;-48
2022/06/09 00:37:43;;;;;;;;;2.50;1.25;;;;;23.17;42.10;100916.75;5076638;28;45995;-48
2022/06/09 00:40:10;;;;;;;;;2.75;1.50;;;;;23.17;41.91;100914.09;5076401;28;45460;-48
2022/06/09 00:42:36;;;;;;;;;2.00;1.00;;;;;23.18;42.10;100917.59;5076803;28;45292;-49
2022/06/09 00:45:28;;;;;;;;;1.75;1.75;;;;;23.17;42.07;100919.41;5077152;28;45465;-48
2022/06/09 00:48:19;;;;;;;;;1.00;1.00;;;;;23.16;41.96;100919.47;5076570;28;46105;-48
2022/06/09 00:50:46;;;;;;;;;2.00;1.75;;;;;23.14;42.24;100914.31;5058256;28;45859;-50
2022/06/09 00:53:22;;;;;;;;;6.00;2.00;;;;;23.14;41.62;100908.19;5076704;28;45446;-47
2022/06/09 00:55:48;;;;;;;;;2.50;2.00;;;;;23.15;41.90;100909.88;5058474;28;45389;-48
2022/06/09 00:58:17;;;;;;;;;2.50;2.00;;;;;23.15;42.03;100915.16;5075991;28;46407;-48
2022/06/09 01:00:56;;;;;;;;;2.00;2.00;;;;;23.14;41.73;100913.47;5076371;28;45305;-48
2022/06/09 01:03:25;;;;;;;;;1.00;1.00;;;;;23.13;41.80;100914.41;5076666;28;45397;-49
2022/06/09 01:05:55;;;;;;;;;2.00;2.00;;;;;23.14;41.99;100924.88;5076609;28;45671;-48
2022/06/09 01:08:21;;;;;;;;;3.75;1.50;;;;;23.13;41.97;100925.81;5076299;28;46307;-48
2022/06/09 01:10:46;;;;;;;;;1.50;1.50;;;;;23.12;41.81;100921.47;5076288;28;45476;-49
2022/06/09 01:13:11;;;;;;;;;5.00;2.00;;;;;23.13;41.75;100925.00;5076520;28;45565;-48
2022/06/09 01:16:07;;;;;;;;;0.00;0.00;;;;;23.12;41.88;100926.75;5076727;28;45524;-48
2022/06/09 01:18:51;;;;;;;;;2.00;2.00;;;;;23.12;41.75;100925.94;5076448;28;45445;-47
2022/06/09 01:21:45;;;;;;;;;2.00;1.25;;;;;23.11;41.91;100926.88;5076277;28;45435;-48
2022/06/09 01:24:52;;;;;;;;;4.00;2.00;;;;;23.12;42.02;100933.88;5079801;28;45312;-48
2022/06/09 01:27:20;;;;;;;;;1.00;1.00;;;;;23.10;41.96;100931.31;5079869;28;45331;-48
2022/06/09 01:30:06;;;;;;;;;4.50;2.00;;;;;23.10;41.81;100931.31;5079525;28;45365;-50
2022/06/09 01:33:09;;;;;;;;;2.75;2.00;;;;;23.10;41.47;100938.41;5079879;28;45219;-48
2022/06/09 01:35:50;;;;;;;;;3.00;2.00;;;;;23.07;41.77;100936.81;5079772;28;45322;-48
2022/06/09 01:38:15;;;;;;;;;2.50;2.00;;;;;23.09;41.60;100940.22;5079782;27;45504;-49
2022/06/09 01:40:41;;;;;;;;;6.00;1.25;;;;;23.06;41.77;100935.09;5079048;28;46127;-49
2022/06/09 01:43:07;;;;;;;;;2.75;1.75;;;;;23.08;41.63;100941.16;5078981;28;55416;-52
2022/06/09 01:45:56;;;;;;;;;1.00;1.00;;;;;23.07;41.77;100942.09;5078465;28;45304;-51
2022/06/09 01:48:24;;;;;;;;;3.50;2.00;;;;;23.04;41.81;100939.63;5079673;28;45243;-48
2022/06/09 01:51:03;;;;;;;;;1.25;1.00;;;;;23.04;41.53;100942.28;5094980;27;47449;-50
2022/06/09 01:53:41;;;;;;;;;1.00;1.00;;;;;23.04;41.83;100937.00;5079127;28;45342;-51
2022/06/09 01:56:22;;;;;;;;;1.00;1.00;;;;;23.03;41.59;100956.44;5079437;28;45178;-50
2022/06/09 01:58:53;;;;;;;;;3.00;1.00;;;;;23.02;41.73;100952.09;5079506;28;45320;-50
2022/06/09 02:01:26;;;;;;;;;1.50;1.00;;;;;23.04;42.11;100952.03;5079042;28;45438;-48
2022/06/09 02:03:55;;;;;;;;;2.50;2.50;;;;;23.01;41.60;100955.69;5079100;28;45954;-51
2022/06/09 02:06:21;;;;;;;;;4.00;1.00;;;;;23.03;41.70;100964.38;5079240;28;45345;-50
2022/06/09 02:08:48;;;;;;;;;1.25;1.00;;;;;23.01;41.60;100963.63;5079273;28;45469;-51
2022/06/09 02:11:13;;;;;;;;;2.75;1.00;;;;;23.00;41.58;100967.22;5079075;28;45546;-51
2022/06/09 02:13:45;;;;;;;;;1.25;1.25;;;;;22.97;41.92;100962.13;5078981;28;45292;-49
2022/06/09 02:16:14;;;;;;;;;2.00;1.25;;;;;23.02;41.67;100970.59;5079084;28;45346;-48
2022/06/09 02:18:44;;;;;;;;;1.00;1.00;;;;;23.02;41.55;100975.91;5079101;28;45525;-49
2022/06/09 02:21:18;;;;;;;;;3.00;1.00;;;;;23.01;41.50;100975.06;5078474;28;46094;-48
2022/06/09 02:23:43;;;;;;;;;1.00;1.00;;;;;23.01;41.73;100975.06;5078729;28;45828;-49
2022/06/09 02:26:09;;;;;;;;;1.00;1.00;;;;;23.00;41.71;100976.00;5078835;28;45936;-48
2022/06/09 02:28:35;;;;;;;;;3.50;2.25;;;;;23.00;41.53;100978.66;5079227;28;45524;-49
2022/06/09 02:31:00;;;;;;;;;3.75;2.00;;;;;23.02;41.74;100970.59;5078443;28;46029;-49
2022/06/09 02:33:26;;;;;;;;;1.00;0.00;;;;;22.99;41.16;100969.00;5078157;28;45299;-48
2022/06/09 02:35:52;;;;;;;;;1.50;1.25;;;;;23.01;41.71;100976.84;5078820;28;45354;-48
2022/06/09 02:38:18;;;;;;;;;4.25;2.00;;;;;23.00;41.77;100976.00;5078767;28;45434;-48
2022/06/09 02:40:44;;;;;;;;;1.00;1.00;;;;;22.98;41.53;100977.06;5078292;28;45428;-49
2022/06/09 02:43:09;;;;;;;;;3.00;2.00;;;;;23.00;41.36;100980.44;5078335;28;45313;-48
2022/06/09 02:45:35;;;;;;;;;0.75;0.75;;;;;22.97;41.29;100972.72;5078821;28;45264;-49
2022/06/09 02:48:01;;;;;;;;;1.75;1.75;;;;;22.99;41.45;100976.06;5078606;28;45340;-48
2022/06/09 02:50:27;;;;;;;;;3.00;2.00;;;;;22.99;41.78;100984.00;5078315;28;46132;-48
2022/06/09 02:52:53;;;;;;;;;2.00;1.00;;;;;22.99;41.52;100984.00;5060090;28;45330;-49
2022/06/09 02:55:18;;;;;;;;;2.00;2.00;;;;;22.99;41.52;100978.72;5078465;28;45231;-48
2022/06/09 02:57:43;;;;;;;;;0.50;0.00;;;;;22.98;41.69;100980.53;5078631;28;45458;-49
2022/06/09 03:00:14;;;;;;;;;2.50;1.50;;;;;22.98;41.36;100977.06;5078018;28;45373;-48
2022/06/09 03:02:40;;;;;;;;;3.00;1.75;;;;;22.98;41.78;100980.53;5078002;28;45634;-49
2022/06/09 03:05:06;;;;;;;;;2.25;1.25;;;;;22.98;41.80;100987.63;5078582;28;45176;-48
2022/06/09 03:07:31;;;;;;;;;3.75;1.75;;;;;22.96;41.34;100982.41;5078231;28;45570;-49
2022/06/09 03:09:56;;;;;;;;;2.25;2.00;;;;;22.96;41.73;100977.13;5077917;28;45433;-48
2022/06/09 03:12:22;;;;;;;;;4.25;2.75;;;;;22.97;41.63;100985.94;5077325;28;63886;-49
2022/06/09 03:14:47;;;;;;;;;1.25;1.25;;;;;22.95;41.35;100985.16;5078162;28;45304;-48
2022/06/09 03:17:13;;;;;;;;;3.00;2.00;;;;;22.95;41.90;100979.88;5078287;28;45546;-51
2022/06/09 03:19:39;;;;;;;;;3.00;1.00;;;;;22.95;41.56;100978.06;5078089;28;45458;-49
2022/06/09 03:22:05;;;;;;;;;3.00;2.00;;;;;22.95;41.26;100977.25;5078112;28;45374;-49
2022/06/09 03:24:30;;;;;;;;;2.00;2.00;;;;;22.93;41.70;100979.97;5077931;28;45319;-50
2022/06/09 03:26:56;;;;;;;;;2.50;1.75;;;;;22.94;41.70;100980.81;5078066;28;45449;-49
2022/06/09 03:29:22;;;;;;;;;6.25;2.25;;;;;22.94;41.42;100979.03;5077587;28;46738;-50
2022/06/09 03:31:48;;;;;;;;;3.00;1.75;;;;;22.93;41.76;100982.59;5077698;28;45252;-49
2022/06/09 03:34:14;;;;;;;;;2.25;1.25;;;;;22.92;41.63;100980.94;5077802;28;45422;-49
2022/06/09 03:36:39;;;;;;;;;3.50;2.00;;;;;22.93;41.66;100981.78;5078244;28;45298;-49
2022/06/09 03:39:05;;;;;;;;;2.25;2.25;;;;;22.92;41.50;100991.50;5059156;28;48070;-49
2022/06/09 03:41:30;;;;;;;;;2.00;2.00;;;;;22.92;41.59;100995.94;5077550;28;45390;-49
2022/06/09 03:43:56;;;;;;;;;3.50;3.00;;;;;22.90;41.45;101009.25;5077305;28;50610;-49
2022/06/09 03:46:21;;;;;;;;;3.00;1.00;;;;;22.91;41.53;101005.66;5076744;28;45740;-51
2022/06/09 03:48:47;;;;;;;;;5.50;2.00;;;;;22.92;41.71;101011.78;5093132;27;45873;-48
2022/06/09 03:51:12;;;;;;;;;2.00;2.00;;;;;22.93;41.69;101013.50;5077430;28;45261;-49
2022/06/09 03:53:40;;;;;;;;;3.75;2.00;;;;;22.91;41.98;101018.00;5077683;28;45304;-49
2022/06/09 03:56:11;;;;;;;;;2.50;1.00;;;;;22.90;41.56;101022.47;5077557;28;45536;-49
2022/06/09 03:58:37;;;;;;;;;2.50;2.00;;;;;22.91;41.67;101021.53;5077651;28;45956;-49
2022/06/09 04:01:02;;;;;;;;;6.00;3.00;;;;;22.89;41.51;101031.34;5077276;28;45355;-49
2022/06/09 04:03:29;;;;;;;;;4.00;2.00;;;;;22.90;41.72;101027.75;5077380;28;45644;-49
2022/06/09 04:05:55;;;;;;;;;2.00;2.00;;;;;22.90;41.75;101043.59;5077460;28;45420;-49
2022/06/09 04:08:20;;;;;;;;;3.00;2.00;;;;;22.90;41.82;101035.69;5077064;28;46194;-48
2022/06/09 04:10:46;;;;;;;;;2.75;2.75;;;;;22.90;42.13;101037.44;5058896;28;45385;-53
2022/06/09 04:13:11;;;;;;;;;2.00;2.00;;;;;22.89;41.84;101039.25;5077381;28;45786;-51
2022/06/09 04:15:37;;;;;;;;;3.00;2.00;;;;;22.89;41.77;101041.91;5077350;28;45406;-53
2022/06/09 04:18:04;;;;;;;;;3.25;2.00;;;;;22.90;41.73;101045.38;5076778;28;46129;-51
2022/06/09 04:20:29;;;;;;;;;2.50;2.00;;;;;22.89;41.66;101046.31;5076134;28;45702;-51
2022/06/09 04:22:55;;;;;;;;;2.25;2.00;;;;;22.88;41.48;101052.56;5076804;28;48820;-49
2022/06/09 04:25:20;;;;;;;;;4.25;2.00;;;;;22.88;41.39;101055.19;5077110;28;45179;-48
2022/06/09 04:27:46;;;;;;;;;3.00;1.00;;;;;22.88;41.62;101060.47;5076796;28;45237;-49
2022/06/09 04:30:12;;;;;;;;;3.00;3.00;;;;;22.87;41.55;101061.44;5077095;28;45244;-50
2022/06/09 04:32:37;;;;;;;;;2.50;2.00;;;;;22.86;41.49;101063.22;5076968;28;45348;-49
2022/06/09 04:35:04;;;;;;;;;3.00;1.00;;;;;22.83;41.64;101069.56;5077124;28;45565;-49
2022/06/09 04:40:13;;;;;;;;;3.75;2.00;;;;;22.87;41.53;101080.78;5077088;28;45287;-49
2022/06/09 04:42:38;;;;;;;;;1.00;1.00;;;;;22.87;41.74;101082.59;5076811;28;45307;-49
2022/06/09 04:45:04;;;;;;;;;2.25;2.00;;;;;22.87;41.55;101087.88;5077092;28;45401;-49
2022/06/09 04:47:30;;;;;;;;;3.00;3.00;;;;;22.85;41.83;101080.91;5076502;28;45982;-49
2022/06/09 04:49:55;;;;;;;;;2.75;2.75;;;;;22.85;41.67;101083.53;5092352;27;45402;-51
2022/06/09 04:52:20;;;;;;;;;5.00;2.00;;;;;22.85;41.48;101086.19;5076688;28;45324;-50
2022/06/09 04:54:46;;;;;;;;;5.00;2.75;;;;;22.86;41.73;101094.94;5076630;28;45450;-49
2022/06/09 04:57:11;;;;;;;;;1.50;1.00;;;;;22.85;41.20;101096.75;5094729;27;47540;-49
2022/06/09 04:59:36;;;;;;;;;2.00;2.00;;;;;22.84;41.63;101100.34;5079900;28;51334;-52
2022/06/09 05:02:02;;;;;;;;;1.50;1.00;;;;;22.85;41.71;101107.31;5080307;28;45425;-49
2022/06/09 05:04:27;;;;;;;;;2.00;1.25;;;;;22.84;41.75;101113.56;5062113;28;45264;-49
2022/06/09 05:06:53;;;;;;;;;1.00;0.00;;;;;22.87;41.39;101109.84;5080046;28;46168;-49
2022/06/09 05:09:18;;;;;;;;;3.00;2.00;;;;;22.87;41.69;101114.31;5079746;28;45439;-50
2022/06/09 05:11:44;;;;;;;;;3.00;1.25;;;;;22.86;41.54;101113.44;5080460;28;45604;-49
2022/06/09 05:14:09;;;;;;;;;5.00;3.00;;;;;22.86;41.54;101113.44;5080159;28;45378;-49
2022/06/09 05:16:35;;;;;;;;;4.00;2.00;;;;;22.87;41.48;101116.94;5079883;28;45904;-49
2022/06/09 05:19:00;;;;;;;;;5.00;2.00;;;;;22.85;41.72;101115.25;5079885;28;45232;-48
2022/06/09 05:21:26;;;;;;;;;3.75;2.50;;;;;22.85;41.65;101123.19;5061644;28;45323;-50
2022/06/09 05:23:51;;;;;;;;;3.25;2.00;;;;;22.87;41.72;101130.16;5079988;28;45298;-49
2022/06/09 05:26:16;;;;;;;;;3.00;2.75;;;;;22.85;41.68;101133.75;5079670;28;55204;-48
2022/06/09 05:28:42;;;;;;;;;1.75;1.75;;;;;22.81;41.38;101139.31;5079939;28;45377;-49
2022/06/09 05:31:08;;;;;;;;;3.25;2.00;;;;;22.78;41.73;101142.97;5079806;28;45454;-49
2022/06/09 05:33:33;;;;;;;;;2.75;1.25;;;;;22.75;41.60;101137.91;5079801;28;45226;-55
2022/06/09 05:35:59;;;;;;;;;3.25;2.00;;;;;22.73;41.88;101141.53;5079450;28;45481;-54
2022/06/09 05:46:40;;;;;;;;;2.50;1.75;;;;;22.64;41.99;101158.81;5079048;28;45728;-49
2022/06/09 05:49:05;;;;;;;;;4.25;3.00;;;;;22.63;42.25;101154.47;5079290;28;45307;-52
2022/06/09 05:51:31;;;;;;;;;4.75;3.00;;;;;22.60;41.91;101160.75;5079450;28;45298;-51
2022/06/09 05:53:56;;;;;;;;;7.25;3.25;;;;;22.59;42.02;101164.38;5079530;28;45269;-48
2022/06/09 05:56:22;;;;;;;;;3.00;2.00;;;;;22.59;41.97;101171.44;5079030;28;53253;-48
2022/06/09 05:58:47;;;;;;;;;3.00;2.75;;;;;22.53;41.78;101172.66;5079631;28;45452;-50
2022/06/09 06:01:13;;;;;;;;;3.25;2.50;;;;;22.47;41.76;101171.22;5078941;28;49157;-55
2022/06/09 06:03:40;;;;;;;;;3.75;2.25;;;;;22.41;42.09;101174.22;5061308;28;45318;-52
2022/06/09 06:08:50;;;;;;;;;2.25;2.25;;;;;22.31;42.14;101173.03;5091874;27;45745;-48
2022/06/09 06:11:15;;;;;;;;;6.75;3.25;;;;;22.25;42.43;101182.16;5079344;28;45220;-51
2022/06/09 06:13:42;;;;;;;;;4.75;3.00;;;;;22.20;42.25;101179.78;5079244;28;45329;-55
2022/06/09 06:16:08;;;;;;;;;7.25;2.75;;;;;22.17;42.36;101182.59;5078984;28;45342;-52
2022/06/09 06:18:33;;;;;;;;;5.50;4.00;;;;;22.12;42.50;101187.25;5079034;28;45380;-48
2022/06/09 06:20:59;;;;;;;;;8.00;2.50;;;;;22.05;42.66;101186.75;5078973;28;45382;-52
2022/06/09 06:23:24;;;;;;;;;4.75;3.75;;;;;22.06;42.43;101183.19;5079214;28;45413;-51
2022/06/09 06:25:52;;;;;;;;;4.00;3.00;;;;;22.00;42.65;101194.09;5078957;28;45330;-47
2022/06/09 06:28:17;;;;;;;;;3.00;3.00;;;;;21.98;42.77;101189.84;5079150;28;45410;-50
2022/06/09 06:30:43;;;;;;;;;6.25;2.50;;;;;21.93;42.94;101184.81;5078911;28;45307;-51
2022/06/09 06:33:08;;;;;;;;;7.00;2.25;;;;;21.90;43.01;101187.63;5079022;28;45258;-52
2022/06/09 06:35:33;;;;;;;;;2.00;2.00;;;;;21.87;42.99;101191.28;5078629;28;45414;-49
2022/06/09 06:38:00;;;;;;;;;5.00;4.00;;;;;21.86;43.05;101201.91;5078542;28;45226;-48
2022/06/09 06:40:25;;;;;;;;;4.00;4.00;;;;;21.86;43.11;101201.91;5078581;28;45263;-48
2022/06/09 06:42:51;;;;;;;;;3.25;2.75;;;;;21.84;43.31;101207.28;5078747;28;45460;-51
2022/06/09 06:45:17;;;;;;;;;9.25;3.25;;;;;21.81;43.05;101210.09;5078816;28;45749;-50
2022/06/09 06:47:43;;;;;;;;;5.00;3.75;;;;;21.80;43.04;101212.81;5078438;28;45770;-48
2022/06/09 06:50:11;;;;;;;;;4.00;4.00;;;;;21.79;43.16;101211.97;5078501;28;45204;-49
2022/06/09 06:52:37;;;;;;;;;6.25;3.50;;;;;21.78;43.18;101216.41;5078584;28;45457;-48
2022/06/09 06:55:04;;;;;;;;;6.25;3.50;;;;;21.77;43.37;101209.41;5076987;28;46071;-48
2022/06/09 06:57:29;;;;;;;;;4.00;3.00;;;;;21.76;43.15;101212.16;5078245;28;45245;-49
2022/06/09 06:59:55;;;;;;;;;4.00;4.00;;;;;21.77;43.41;101224.41;5078385;28;45253;-50
2022/06/09 07:02:20;;;;;;;;;3.50;3.50;;;;;21.76;43.56;101222.69;5078669;28;45450;-52
2022/06/09 07:04:46;;;;;;;;;4.25;3.75;;;;;21.78;43.37;101231.34;5078235;28;46104;-50
2022/06/09 07:07:11;;;;;;;;;5.75;3.00;;;;;21.81;43.25;101238.28;5078112;28;45182;-48
2022/06/09 07:09:37;;;;;;;;;4.00;4.00;;;;;21.81;43.34;101241.75;5078247;28;45296;-48
2022/06/09 07:12:04;;;;;;;;;2.75;2.00;;;;;21.82;43.34;101243.47;5078337;28;45597;-49
2022/06/09 07:14:29;;;;;;;;;5.00;4.00;;;;;21.84;43.34;101246.88;5078063;28;45999;-48
2022/06/09 07:16:55;;;;;;;;;5.75;4.00;;;;;21.83;43.33;101247.81;5077896;28;47818;-49
2022/06/09 07:19:20;;;;;;;;;5.00;3.75;;;;;21.83;43.26;101245.16;5092153;27;46601;-51
2022/06/09 07:21:46;;;;;;;;;4.00;3.75;;;;;21.86;43.19;101250.28;5077072;28;45471;-49
2022/06/09 07:24:12;;;;;;;;;4.50;4.00;;;;;21.88;42.90;101260.75;5077574;28;45316;-49
2022/06/09 07:26:37;;;;;;;;;7.00;4.00;;;;;21.90;43.21;101265.00;5077786;28;45841;-48
2022/06/09 07:29:03;;;;;;;;;4.50;3.50;;;;;21.87;43.02;101270.47;5077803;28;45389;-48
2022/06/09 07:31:29;;;;;;;;;4.50;3.50;;;;;21.88;43.22;101258.09;5077794;28;45466;-50
2022/06/09 07:33:55;;;;;;;;;5.75;3.00;;;;;21.90;42.98;101261.53;5077692;28;46118;-48
2022/06/09 07:36:23;;;;;;;;;5.00;4.00;;;;;21.91;43.15;101268.50;5077836;28;45271;-51
2022/06/09 07:38:49;;;;;;;;;8.25;5.25;;;;;21.91;42.98;101273.78;5059702;28;45315;-48
2022/06/09 07:41:14;;;;;;;;;6.50;3.25;;;;;21.90;42.88;101272.91;5077079;28;45410;-48
2022/06/09 07:43:40;;;;;;;;;5.75;4.00;;;;;21.91;43.14;101287.81;5077007;28;45792;-48
2022/06/09 07:46:06;;;;;;;;;4.75;3.00;;;;;21.93;43.16;101283.31;5077381;28;45877;-49
2022/06/09 07:48:31;;;;;;;;;5.25;4.00;;;;;21.95;42.62;101285.00;5077393;28;45375;-49
2022/06/09 07:50:56;;;;;;;;;4.75;4.75;;;;;21.98;42.78;101284.84;5077427;27;45557;-49
2022/06/09 07:53:23;;;;;;;;;6.00;4.50;;;;;21.97;42.91;101278.72;5077091;28;46127;-48
2022/06/09 07:55:49;;;;;;;;;5.75;3.50;;;;;21.95;43.01;101285.00;5077259;28;45879;-48
2022/06/09 07:58:17;;;;;;;;;4.50;4.00;;;;;21.95;42.85;101285.00;5077501;28;45251;-52
2022/06/09 08:00:42;;;;;;;;;3.50;3.00;;;;;21.99;42.84;101283.94;5092980;27;45425;-49
2022/06/09 08:03:10;;;;;;;;;7.75;4.00;;;;;22.00;43.06;101288.25;5077093;28;45431;-48
2022/06/09 08:05:36;;;;;;;;;6.00;4.25;;;;;22.02;42.72;101283.72;5058932;28;46011;-49
2022/06/09 08:08:02;;;;;;;;;5.25;3.00;;;;;22.01;42.65;101292.59;5077230;28;45481;-48
2022/06/09 08:10:29;;;;;;;;;7.50;4.25;;;;;22.05;42.54;101294.13;5077451;28;45391;-49
2022/06/09 08:12:59;;;;;;;;;8.00;5.00;;;;;22.05;42.64;101299.41;5075658;28;47990;-48
2022/06/09 08:15:25;;;;;;;;;7.75;6.75;;;;;22.07;42.26;101313.38;5058503;28;45849;-47
2022/06/09 08:17:56;;;;;;;;;5.50;4.50;;;;;22.09;41.81;101306.25;5077447;28;45479;-50
2022/06/09 08:20:22;;;;;;;;;8.25;5.00;;;;;22.11;41.82;101306.16;5077644;28;45441;-48
2022/06/09 08:22:48;;;;;;;;;6.50;5.25;;;;;22.11;41.76;101306.16;5076891;27;45292;-49
2022/06/09 08:25:18;;;;;;;;;5.25;5.25;;;;;22.12;41.59;101313.97;5076929;27;45377;-49
2022/06/09 08:27:46;;;;;;;;;6.75;4.00;;;;;22.12;41.52;101308.69;5077073;27;45396;-50
2022/06/09 08:30:13;;;;;;;;;8.00;5.00;;;;;22.13;41.40;101309.56;5058911;28;45296;-49
2022/06/09 08:32:39;;;;;;;;;7.50;5.00;;;;;22.11;41.65;101308.78;5076333;28;46372;-49
2022/06/09 08:35:07;;;;;;;;;4.00;4.00;;;;;22.13;41.54;101320.97;5076688;27;45375;-49
2022/06/09 08:37:33;;;;;;;;;6.50;4.00;;;;;22.14;41.85;101317.38;5075028;28;45462;-48
2022/06/09 08:39:58;;;;;;;;;7.00;4.25;;;;;22.15;41.69;101323.53;5076247;27;45448;-48
2022/06/09 08:43:08;;;;;;;;;5.75;4.00;;;;;22.16;41.79;101326.06;5073842;28;47541;-49
2022/06/09 08:45:42;;;;;;;;;7.50;5.00;;;;;22.18;41.72;101318.94;5076802;28;45360;-50
2022/06/09 08:48:17;;;;;;;;;8.50;6.75;;;;;22.18;41.65;101318.94;5076396;28;45474;-48
2022/06/09 08:50:51;;;;;;;;;3.75;3.75;;;;;22.17;41.76;101311.94;5076370;28;45538;-50
2022/06/09 08:53:33;;;;;;;;;6.00;3.75;;;;;22.19;41.62;101306.56;5076420;28;45549;-48
2022/06/09 08:56:04;;;;;;;;;4.00;4.00;;;;;22.20;41.42;101303.88;5076321;28;45860;-48
2022/06/09 08:58:39;;;;;;;;;7.25;4.75;;;;;22.20;41.42;101309.16;5076358;28;45416;-47
2022/06/09 09:01:12;;;;;;;;;7.25;4.50;;;;;22.22;41.35;101309.88;5058398;28;45288;-49
2022/06/09 09:03:48;;;;;;;;;5.00;5.00;;;;;22.22;41.09;101312.53;5076353;27;45653;-48
2022/06/09 09:06:33;;;;;;;;;5.75;3.50;;;;;22.24;41.01;101310.66;5076513;28;45358;-47
2022/06/09 09:09:11;;;;;;;;;5.75;4.50;;;;;22.25;41.16;101306.25;5076458;27;45421;-47
2022/06/09 09:11:56;;;;;;;;;5.50;4.00;;;;;22.28;40.92;101313.13;5076456;27;45429;-47
2022/06/09 09:14:29;;;;;;;;;3.75;3.75;;;;;22.31;40.92;101305.91;5076266;28;45362;-46
2022/06/09 09:17:13;;;;;;;;;5.50;4.50;;;;;22.31;40.88;101307.69;5076584;27;45896;-47
2022/06/09 09:19:53;;;;;;;;;5.00;4.00;;;;;22.32;41.05;101301.47;5076290;28;45354;-48
2022/06/09 09:23:03;;;;;;;;;3.75;2.75;;;;;22.34;40.70;101310.16;5076498;28;45325;-50
2022/06/09 09:25:48;;;;;;;;;3.50;3.50;;;;;22.34;40.70;101310.16;5076161;28;46186;-49
2022/06/09 09:28:14;;;;;;;;;5.25;4.00;;;;;22.34;40.71;101311.00;5076161;28;45440;-48
2022/06/09 09:30:58;;;;;;;;;5.50;4.25;;;;;22.36;40.61;101321.47;5076229;28;45368;-48
2022/06/09 09:33:24;;;;;;;;;3.50;3.50;;;;;22.35;40.67;101319.78;5076756;28;45512;-48
2022/06/09 09:35:55;;;;;;;;;2.50;2.50;;;;;22.31;40.54;101318.25;5075940;27;45438;-48
2022/06/09 09:38:22;;;;;;;;;3.75;3.00;;;;;22.31;40.70;101315.63;5075804;28;45411;-53
2022/06/09 09:40:56;;;;;;;;;3.00;3.00;;;;;22.33;40.62;101316.34;5075878;28;45312;-48
2022/06/09 09:43:26;;;;;;;;;5.00;3.75;;;;;22.32;40.90;101325.25;5077198;28;45364;-51
2022/06/09 09:45:54;;;;;;;;;5.75;3.00;;;;;22.34;40.85;101318.06;5079242;28;46381;-48
2022/06/09 09:48:20;;;;;;;;;4.25;3.00;;;;;22.35;40.74;101315.38;5079296;28;45259;-48
2022/06/09 09:51:01;;;;;;;;;7.00;3.00;;;;;22.37;40.69;101317.91;5079438;28;45260;-48
2022/06/09 09:53:47;;;;;;;;;8.25;4.50;;;;;22.39;40.35;101319.50;5079919;28;45493;-48
2022/06/09 09:56:15;;;;;;;;;3.00;3.00;;;;;22.42;40.35;101331.75;5079224;28;45472;-51
2022/06/09 09:58:46;;;;;;;;;8.00;5.00;;;;;22.44;40.14;101324.56;5079191;28;45236;-47
2022/06/09 10:01:17;;;;;;;;;2.00;2.00;;;;;22.45;39.96;101326.28;5079282;28;45284;-48
2022/06/09 10:09:44;;;;;;;;;5.25;2.50;;;;;22.44;40.26;101337.78;5078943;28;45742;-48
2022/06/09 10:12:18;;;;;;;;;4.25;3.00;;;;;22.43;40.17;101333.47;5079075;27;45472;-47
2022/06/09 10:14:49;;;;;;;;;3.50;2.75;;;;;22.40;40.34;101344.16;5061117;28;45430;-47
2022/06/09 10:17:50;;;;;;;;;4.75;3.50;;;;;22.39;40.45;101340.66;5078918;28;45297;-48
2022/06/09 10:20:25;;;;;;;;;4.25;3.00;;;;;22.36;40.25;101343.47;5078837;28;45324;-47
2022/06/09 10:23:22;;;;;;;;;3.50;3.50;;;;;22.38;39.96;101348.66;5078935;28;45322;-48
2022/06/09 10:26:15;;;;;;;;;4.75;3.25;;;;;22.35;40.25;101341.78;5078905;27;45307;-47
2022/06/09 10:28:57;;;;;;;;;2.75;1.50;;;;;22.34;40.23;101360.31;5078610;28;46672;-49
2022/06/09 10:31:45;;;;;;;;;4.00;4.00;;;;;22.34;40.19;101355.03;5078677;28;45832;-48
2022/06/09 10:34:45;;;;;;;;;4.25;3.00;;;;;22.33;39.96;101353.34;5078708;28;45385;-49
2022/06/09 10:37:17;;;;;;;;;4.00;4.00;;;;;22.33;39.94;101353.34;5071324;28;45367;-48
2022/06/09 10:40:00;;;;;;;;;6.00;4.00;;;;;22.34;40.00;101355.03;5078441;28;46118;-48
2022/06/09 10:42:43;;;;;;;;;5.75;3.00;;;;;22.34;39.87;101360.31;5078379;28;47127;-49
2022/06/09 10:45:30;;;;;;;;;4.75;3.75;;;;;22.31;40.11;101353.44;5094305;27;45302;-50
2022/06/09 10:57:08;;;;;;;;;2.00;2.00;;;;;22.37;39.68;101363.66;5078552;28;45174;-47
2022/06/09 10:59:37;;;;;;;;;6.00;3.50;;;;;22.39;39.84;101361.78;5078670;28;45388;-48
2022/06/09 11:02:12;;;;;;;;;4.00;2.50;;;;;22.41;39.55;101369.66;5078411;28;45388;-47
2022/06/09 11:04:37;;;;;;;;;9.75;3.00;;;;;22.37;39.56;101349.59;5078179;27;45754;-46
2022/06/09 11:07:12;;;;;;;;;4.00;3.00;;;;;22.43;39.53;101365.16;5078554;28;45271;-47
2022/06/09 11:09:59;;;;;;;;;3.25;3.00;;;;;22.46;39.59;101369.41;5078230;27;45319;-48
2022/06/09 11:12:28;;;;;;;;;3.50;2.25;;;;;22.47;39.64;101369.31;5077952;28;45995;-47
2022/06/09 11:15:07;;;;;;;;;6.50;3.00;;;;;22.50;39.84;101365.63;5077997;28;45235;-49
2022/06/09 11:17:46;;;;;;;;;3.00;2.00;;;;;22.52;39.54;101375.22;5078496;28;45347;-47
2022/06/09 11:20:15;;;;;;;;;3.25;3.00;;;;;22.52;39.80;101364.63;5078268;28;45221;-48
2022/06/09 11:23:06;;;;;;;;;5.25;4.00;;;;;22.52;39.32;101367.28;5077697;28;45382;-47
2022/06/09 11:25:43;;;;;;;;;2.50;2.50;;;;;22.57;39.43;101372.31;5078252;28;45316;-47
2022/06/09 11:28:28;;;;;;;;;1.75;1.75;;;;;22.58;39.45;101374.00;5078071;28;45295;-47
2022/06/09 11:31:12;;;;;;;;;3.00;3.00;;;;;22.60;39.24;101368.63;5078278;28;45276;-47
2022/06/09 11:34:10;;;;;;;;;1.00;1.00;;;;;22.62;38.92;101369.41;5059527;28;46333;-53
2022/06/09 11:36:45;;;;;;;;;2.00;1.25;;;;;22.63;39.16;101373.75;5077647;28;45399;-51
2022/06/09 11:39:44;;;;;;;;;2.00;2.00;;;;;22.64;38.99;101383.38;5077735;28;45323;-48
2022/06/09 11:42:22;;;;;;;;;3.00;3.00;;;;;22.66;38.86;101370.91;5059623;28;45422;-47
2022/06/09 11:44:50;;;;;;;;;3.25;3.25;;;;;22.67;39.16;101373.50;5077447;27;46125;-47
2022/06/09 11:47:19;;;;;;;;;4.00;2.50;;;;;22.65;38.57;101372.72;5077459;28;45460;-47
2022/06/09 11:49:49;;;;;;;;;3.00;2.00;;;;;22.69;39.08;101376.03;5077692;28;45253;-47
2022/06/09 11:52:39;;;;;;;;;2.75;2.00;;;;;22.70;38.90;101378.63;5077899;28;45364;-48
2022/06/09 11:58:36;;;;;;;;;3.00;3.00;;;;;22.75;38.88;101373.06;5077252;28;45902;-50
2022/06/09 12:01:22;;;;;;;;;2.00;2.00;;;;;22.78;38.65;101374.69;5077635;28;46049;-51
2022/06/09 12:04:12;;;;;;;;;3.00;3.00;;;;;22.78;38.53;101370.22;5077608;28;45338;-52
2022/06/09 12:06:59;;;;;;;;;3.00;3.00;;;;;22.81;38.70;101383.28;5076445;28;45214;-51
2022/06/09 12:09:43;;;;;;;;;5.25;2.00;;;;;22.81;38.59;101375.34;5077101;27;45547;-51
2022/06/09 12:12:29;;;;;;;;;4.00;3.00;;;;;22.85;38.76;101371.59;5077411;27;45299;-50